This is the latest recevied weather packets stored in our database for station/object KE0FIN. If no packets are shown the sender has not sent any weather packets the latest 10 day(s).
| Time | Temp. | Humidity | Pressure | Rain* | Wind** | Luminosity | Snow |
|---|---|---|---|---|---|---|---|
| 1777492339 | 17.22° C | 52% | 1070.8 hPa | 0 mm | - | 463 W/m² | - |
| 1777492036 | 17.78° C | 48% | 1070.9 hPa | 0 mm | - | 516 W/m² | - |
| 1777491733 | 17.78° C | 48% | 1070.7 hPa | 0 mm | - | 560 W/m² | - |
| 1777491430 | 17.22° C | 50% | 1070.7 hPa | 0 mm | - | 628 W/m² | - |
| 1777491128 | 17.22° C | 48% | 1070.9 hPa | 0 mm | - | 573 W/m² | - |
| 1777490823 | 17.22° C | 51% | 1070.9 hPa | 0 mm | - | 614 W/m² | - |
| 1777490520 | 17.22° C | 51% | 1071 hPa | 0 mm | - | 566 W/m² | - |
| 1777490215 | 16.67° C | 54% | 1071 hPa | 0 mm | - | 564 W/m² | - |
| 1777489913 | 17.22° C | 49% | 1071.1 hPa | 0 mm | - | 544 W/m² | - |
| 1777489611 | 16.67° C | 51% | 1071 hPa | 0 mm | - | 596 W/m² | - |
| 1777489307 | 17.22° C | 49% | 1071.1 hPa | 0 mm | - | 646 W/m² | - |
| 1777489004 | 17.22° C | 51% | 1071.1 hPa | 0 mm | - | 197 W/m² | - |
| 1777488701 | 16.11° C | 54% | 1071 hPa | 0 mm | - | 229 W/m² | - |
| 1777488399 | 15.56° C | 55% | 1071.3 hPa | 0 mm | - | 271 W/m² | - |
| 1777488097 | 15.56° C | 55% | 1071.1 hPa | 0 mm | - | 235 W/m² | - |
| 1777487795 | 16.11° C | 56% | 1071.4 hPa | 0 mm | - | 295 W/m² | - |
| 1777487492 | 15.56° C | 56% | 1071.2 hPa | 0 mm | - | 165 W/m² | - |
| 1777487190 | 15° C | 59% | 1071.4 hPa | 0 mm | - | 204 W/m² | - |
| 1777486885 | 14.44° C | 57% | 1071.7 hPa | 0 mm | - | 272 W/m² | - |
| 1777486582 | 14.44° C | 58% | 1071.4 hPa | 0 mm | - | 198 W/m² | - |
| 1777486280 | 15° C | 59% | 1071.6 hPa | 0 mm | - | 204 W/m² | - |
| 1777485978 | 14.44° C | 60% | 1071.4 hPa | 0 mm | - | 209 W/m² | - |
| 1777485674 | 15° C | 59% | 1071.7 hPa | 0 mm | - | 207 W/m² | - |
| 1777485369 | 15° C | 60% | 1071.8 hPa | 0 mm | - | 170 W/m² | - |
| 1777485065 | 15° C | 58% | 1072 hPa | 0 mm | - | 163 W/m² | - |
* Rain latest hour (hover to see other rain measurements)
** Current wind speed in m/s (hover to see current wind gust speed)